sim
Sign-in with your pilot id or email,
or register
Callsign
Passwort

Schedule Details

Flight Number: OEO6515
Departure: London Heathrow Airport (EGLL) at 21:00
Arrival: Delhi Indira Gandhi International Airport (VIDP) at 05:25

Weather Information
Getting current METAR information for EGLL 312120Z AUTO 22009KT 9999 NCD 10/06 Q1011 NOSIG
Getting current METAR information for VIDP 312100Z 00000KT 1200 R28/2000 R29/2000 FU NSC 17/11 Q1013 NOSIG

Schedule Frequency

Route Map